Back to top

Rock Springs, WY weather

Rock Springs-Sweetwater County Airport, Rock Springs, WY: 11/13/2019 16:54
Visibility10 statute milesclear sky
View 7-Day Forecast
Area Summary
Sky/CloudsSky Clear
Weather [last 24 hours]None
Pressure30.08 in.Hg (1019 hPa)
3-hour Pressure Tendency0.005905 in.Hg (0.2 hPa) Decreasing or steady, then increasing; or increasing then increasing more rapidly
Dew Point23 °F (-5 °C)
Relative Humidity 43 %
Temperature44.1 °F (6.7 °C)red thermometer
Wind Chill36.8 °F (2.66 °C) @ gust 34.8 °F (1.56 °C)
Reading TimeMinimum to Maximum Temperature
6-hr ending 11/13@16:5444.1 °F to 48.9 °F (6.7 °C to 9.4 °C)
6-hr ending 11/13@10:5430 °F to 45 °F (-1.1 °C to 7.2 °C)
6-hr ending 11/13@04:5437 °F to 41 °F (2.8 °C to 5 °C)
6-hr ending 11/12@22:5435.1 °F to 41 °F (1.7 °C to 5 °C)
24-hr ending 11/12@23:545 °F to 46.9 °F (-15 °C to 8.3 °C)
Wind16.1 MPH (14 KT) gusting to 25.3 MPH (22 KT)green arrow pointing 270 degrees
Wind FromWest (280 Degrees)
Rolling 24-hr Peak Wind41.4 MPH (36 KT) on 11/13@01:57
Rolling 24-hr Peak Wind FromWest (260 Degrees)
Twilight Begins06:32Sunshine Yesterday
Sunrise07:02N/A
Sunset16:59
Twilight Ends17:29
METARKRKS 132354Z AUTO 28014G22KT 10SM CLR 07/M05 A3008 RMK AO2 SLP168 T00671050 10094 20067 53002
Tags: